sensor_id;sensor_type;location;lat;lon;timestamp;P1;durP1;ratioP1;P2;durP2;ratioP2
13793;SDS011;31160;49.500;7.772;2022-10-16T00:01:08;1.80;;;0.87;;
13793;SDS011;31160;49.500;7.772;2022-10-16T00:03:37;5.87;;;0.87;;
13793;SDS011;31160;49.500;7.772;2022-10-16T00:06:05;2.53;;;0.70;;
13793;SDS011;31160;49.500;7.772;2022-10-16T00:08:33;0.87;;;0.80;;
13793;SDS011;31160;49.500;7.772;2022-10-16T00:11:04;1.73;;;0.60;;
13793;SDS011;31160;49.500;7.772;2022-10-16T00:13:39;1.40;;;0.70;;
13793;SDS011;31160;49.500;7.772;2022-10-16T00:16:07;2.30;;;0.70;;
13793;SDS011;31160;49.500;7.772;2022-10-16T00:18:35;0.93;;;0.70;;
13793;SDS011;31160;49.500;7.772;2022-10-16T00:21:22;2.43;;;0.83;;
13793;SDS011;31160;49.500;7.772;2022-10-16T00:23:54;1.43;;;1.10;;
13793;SDS011;31160;49.500;7.772;2022-10-16T00:26:25;3.80;;;1.17;;
13793;SDS011;31160;49.500;7.772;2022-10-16T00:28:53;2.80;;;1.17;;
13793;SDS011;31160;49.500;7.772;2022-10-16T00:31:21;2.30;;;1.13;;
13793;SDS011;31160;49.500;7.772;2022-10-16T00:33:48;0.80;;;0.80;;
13793;SDS011;31160;49.500;7.772;2022-10-16T00:36:17;1.60;;;0.90;;
13793;SDS011;31160;49.500;7.772;2022-10-16T00:38:45;1.30;;;0.90;;
13793;SDS011;31160;49.500;7.772;2022-10-16T00:41:14;1.67;;;0.87;;
13793;SDS011;31160;49.500;7.772;2022-10-16T00:43:44;4.73;;;1.00;;
13793;SDS011;31160;49.500;7.772;2022-10-16T00:46:14;1.70;;;0.83;;
13793;SDS011;31160;49.500;7.772;2022-10-16T00:48:49;1.93;;;0.80;;
13793;SDS011;31160;49.500;7.772;2022-10-16T00:51:32;1.30;;;0.80;;
13793;SDS011;31160;49.500;7.772;2022-10-16T00:54:02;1.87;;;0.90;;
13793;SDS011;31160;49.500;7.772;2022-10-16T00:56:31;1.30;;;0.60;;
13793;SDS011;31160;49.500;7.772;2022-10-16T00:58:59;1.20;;;0.70;;
13793;SDS011;31160;49.500;7.772;2022-10-16T01:01:30;1.93;;;0.77;;
13793;SDS011;31160;49.500;7.772;2022-10-16T01:03:57;2.20;;;0.67;;
13793;SDS011;31160;49.500;7.772;2022-10-16T01:06:25;2.97;;;0.57;;
13793;SDS011;31160;49.500;7.772;2022-10-16T01:09:14;1.90;;;0.63;;
13793;SDS011;31160;49.500;7.772;2022-10-16T01:14:40;1.67;;;0.77;;
13793;SDS011;31160;49.500;7.772;2022-10-16T01:17:15;1.67;;;0.63;;
13793;SDS011;31160;49.500;7.772;2022-10-16T01:20:07;4.13;;;0.80;;
13793;SDS011;31160;49.500;7.772;2022-10-16T01:23:12;1.00;;;0.70;;
13793;SDS011;31160;49.500;7.772;2022-10-16T01:31:22;3.43;;;0.90;;
13793;SDS011;31160;49.500;7.772;2022-10-16T01:34:13;2.30;;;0.80;;
13793;SDS011;31160;49.500;7.772;2022-10-16T01:36:48;3.40;;;0.90;;
13793;SDS011;31160;49.500;7.772;2022-10-16T01:39:20;1.50;;;0.80;;
13793;SDS011;31160;49.500;7.772;2022-10-16T01:41:55;2.93;;;0.63;;
13793;SDS011;31160;49.500;7.772;2022-10-16T01:44:31;1.23;;;0.70;;
13793;SDS011;31160;49.500;7.772;2022-10-16T01:46:59;1.20;;;0.77;;
13793;SDS011;31160;49.500;7.772;2022-10-16T01:49:28;2.20;;;1.00;;
13793;SDS011;31160;49.500;7.772;2022-10-16T01:51:59;0.87;;;0.70;;
13793;SDS011;31160;49.500;7.772;2022-10-16T01:54:29;6.27;;;1.23;;
13793;SDS011;31160;49.500;7.772;2022-10-16T01:56:58;1.33;;;1.00;;
13793;SDS011;31160;49.500;7.772;2022-10-16T01:59:27;4.87;;;1.30;;
13793;SDS011;31160;49.500;7.772;2022-10-16T02:01:57;3.43;;;0.90;;
13793;SDS011;31160;49.500;7.772;2022-10-16T02:04:29;2.60;;;0.90;;
13793;SDS011;31160;49.500;7.772;2022-10-16T02:07:02;3.63;;;1.00;;
13793;SDS011;31160;49.500;7.772;2022-10-16T02:09:29;4.73;;;0.73;;
13793;SDS011;31160;49.500;7.772;2022-10-16T02:11:59;3.90;;;0.77;;
13793;SDS011;31160;49.500;7.772;2022-10-16T02:14:32;2.57;;;1.00;;
13793;SDS011;31160;49.500;7.772;2022-10-16T02:16:59;2.07;;;0.70;;
13793;SDS011;31160;49.500;7.772;2022-10-16T02:19:25;2.40;;;0.90;;
13793;SDS011;31160;49.500;7.772;2022-10-16T02:22:02;5.03;;;1.80;;
13793;SDS011;31160;49.500;7.772;2022-10-16T02:24:35;6.97;;;1.27;;
13793;SDS011;31160;49.500;7.772;2022-10-16T02:27:30;3.13;;;1.10;;
13793;SDS011;31160;49.500;7.772;2022-10-16T02:30:02;1.60;;;0.87;;
13793;SDS011;31160;49.500;7.772;2022-10-16T02:32:45;2.13;;;1.20;;
13793;SDS011;31160;49.500;7.772;2022-10-16T02:35:14;2.40;;;1.20;;
13793;SDS011;31160;49.500;7.772;2022-10-16T02:37:44;4.90;;;1.23;;
13793;SDS011;31160;49.500;7.772;2022-10-16T02:40:12;3.83;;;1.10;;
13793;SDS011;31160;49.500;7.772;2022-10-16T02:42:40;2.33;;;1.47;;
13793;SDS011;31160;49.500;7.772;2022-10-16T02:45:08;4.80;;;1.20;;
13793;SDS011;31160;49.500;7.772;2022-10-16T02:47:36;1.40;;;1.30;;
13793;SDS011;31160;49.500;7.772;2022-10-16T02:50:03;6.00;;;1.30;;
13793;SDS011;31160;49.500;7.772;2022-10-16T02:52:30;3.70;;;1.20;;
13793;SDS011;31160;49.500;7.772;2022-10-16T02:54:57;4.33;;;1.57;;
13793;SDS011;31160;49.500;7.772;2022-10-16T02:57:24;1.80;;;1.47;;
13793;SDS011;31160;49.500;7.772;2022-10-16T02:59:51;3.37;;;1.40;;
13793;SDS011;31160;49.500;7.772;2022-10-16T03:02:18;4.53;;;1.47;;
13793;SDS011;31160;49.500;7.772;2022-10-16T03:04:44;4.13;;;1.80;;
13793;SDS011;31160;49.500;7.772;2022-10-16T03:07:11;4.47;;;1.43;;
13793;SDS011;31160;49.500;7.772;2022-10-16T03:09:38;2.83;;;1.60;;
13793;SDS011;31160;49.500;7.772;2022-10-16T03:12:05;4.07;;;2.00;;
13793;SDS011;31160;49.500;7.772;2022-10-16T03:14:31;4.77;;;1.57;;
13793;SDS011;31160;49.500;7.772;2022-10-16T03:16:58;2.20;;;1.63;;
13793;SDS011;31160;49.500;7.772;2022-10-16T03:19:25;7.03;;;1.80;;
13793;SDS011;31160;49.500;7.772;2022-10-16T03:21:52;3.93;;;1.63;;
13793;SDS011;31160;49.500;7.772;2022-10-16T03:24:18;2.13;;;1.60;;
13793;SDS011;31160;49.500;7.772;2022-10-16T03:26:45;3.87;;;1.70;;
13793;SDS011;31160;49.500;7.772;2022-10-16T03:29:12;3.53;;;2.53;;
13793;SDS011;31160;49.500;7.772;2022-10-16T03:31:39;6.87;;;2.40;;
13793;SDS011;31160;49.500;7.772;2022-10-16T03:34:06;4.20;;;1.97;;
13793;SDS011;31160;49.500;7.772;2022-10-16T03:36:32;4.10;;;1.80;;
13793;SDS011;31160;49.500;7.772;2022-10-16T03:38:59;2.37;;;1.80;;
13793;SDS011;31160;49.500;7.772;2022-10-16T03:41:26;7.20;;;2.60;;
13793;SDS011;31160;49.500;7.772;2022-10-16T03:43:52;5.50;;;2.40;;
13793;SDS011;31160;49.500;7.772;2022-10-16T03:46:19;6.03;;;3.53;;
13793;SDS011;31160;49.500;7.772;2022-10-16T03:48:46;10.40;;;5.23;;
13793;SDS011;31160;49.500;7.772;2022-10-16T03:51:12;8.07;;;4.27;;
13793;SDS011;31160;49.500;7.772;2022-10-16T03:53:39;7.93;;;3.00;;
13793;SDS011;31160;49.500;7.772;2022-10-16T03:56:06;7.17;;;3.47;;
13793;SDS011;31160;49.500;7.772;2022-10-16T03:58:32;8.00;;;2.90;;
13793;SDS011;31160;49.500;7.772;2022-10-16T04:00:59;5.90;;;3.10;;
13793;SDS011;31160;49.500;7.772;2022-10-16T04:03:26;8.37;;;2.90;;
13793;SDS011;31160;49.500;7.772;2022-10-16T04:05:53;5.00;;;2.00;;
13793;SDS011;31160;49.500;7.772;2022-10-16T04:08:19;3.23;;;1.40;;
13793;SDS011;31160;49.500;7.772;2022-10-16T04:10:46;4.97;;;1.70;;
13793;SDS011;31160;49.500;7.772;2022-10-16T04:13:13;4.03;;;1.67;;
13793;SDS011;31160;49.500;7.772;2022-10-16T04:15:40;7.33;;;2.20;;
13793;SDS011;31160;49.500;7.772;2022-10-16T04:18:07;5.33;;;2.40;;
13793;SDS011;31160;49.500;7.772;2022-10-16T04:20:34;2.30;;;1.97;;
13793;SDS011;31160;49.500;7.772;2022-10-16T04:23:00;6.17;;;1.60;;
13793;SDS011;31160;49.500;7.772;2022-10-16T04:25:27;1.67;;;1.57;;
13793;SDS011;31160;49.500;7.772;2022-10-16T04:27:54;8.93;;;2.10;;
13793;SDS011;31160;49.500;7.772;2022-10-16T04:30:21;5.13;;;2.70;;
13793;SDS011;31160;49.500;7.772;2022-10-16T04:32:49;4.77;;;1.50;;
13793;SDS011;31160;49.500;7.772;2022-10-16T04:35:17;1.60;;;1.20;;
13793;SDS011;31160;49.500;7.772;2022-10-16T04:37:45;5.97;;;1.93;;
13793;SDS011;31160;49.500;7.772;2022-10-16T04:40:12;6.33;;;1.30;;
13793;SDS011;31160;49.500;7.772;2022-10-16T04:42:39;4.50;;;1.80;;
13793;SDS011;31160;49.500;7.772;2022-10-16T04:45:06;3.57;;;1.50;;
13793;SDS011;31160;49.500;7.772;2022-10-16T04:47:40;3.53;;;1.57;;
13793;SDS011;31160;49.500;7.772;2022-10-16T04:50:07;3.20;;;1.53;;
13793;SDS011;31160;49.500;7.772;2022-10-16T04:52:34;2.13;;;1.57;;
13793;SDS011;31160;49.500;7.772;2022-10-16T04:55:06;5.77;;;1.50;;
13793;SDS011;31160;49.500;7.772;2022-10-16T04:57:33;3.33;;;1.30;;
13793;SDS011;31160;49.500;7.772;2022-10-16T05:00:00;6.30;;;1.30;;
13793;SDS011;31160;49.500;7.772;2022-10-16T05:02:27;2.90;;;1.10;;
13793;SDS011;31160;49.500;7.772;2022-10-16T05:04:54;3.07;;;1.20;;
13793;SDS011;31160;49.500;7.772;2022-10-16T05:07:20;2.60;;;1.17;;
13793;SDS011;31160;49.500;7.772;2022-10-16T05:09:47;5.17;;;1.37;;
13793;SDS011;31160;49.500;7.772;2022-10-16T05:12:14;4.23;;;1.10;;
13793;SDS011;31160;49.500;7.772;2022-10-16T05:14:40;4.73;;;1.53;;
13793;SDS011;31160;49.500;7.772;2022-10-16T05:17:07;2.17;;;1.40;;
13793;SDS011;31160;49.500;7.772;2022-10-16T05:19:34;5.57;;;1.67;;
13793;SDS011;31160;49.500;7.772;2022-10-16T05:22:00;3.63;;;1.97;;
13793;SDS011;31160;49.500;7.772;2022-10-16T05:24:27;3.60;;;2.20;;
13793;SDS011;31160;49.500;7.772;2022-10-16T05:26:54;2.63;;;1.77;;
13793;SDS011;31160;49.500;7.772;2022-10-16T05:29:21;3.93;;;2.07;;
13793;SDS011;31160;49.500;7.772;2022-10-16T05:31:51;1.87;;;1.13;;
13793;SDS011;31160;49.500;7.772;2022-10-16T05:34:19;8.20;;;3.27;;
13793;SDS011;31160;49.500;7.772;2022-10-16T05:36:46;5.43;;;3.40;;
13793;SDS011;31160;49.500;7.772;2022-10-16T05:39:14;4.40;;;1.43;;
13793;SDS011;31160;49.500;7.772;2022-10-16T05:41:42;2.27;;;1.37;;
13793;SDS011;31160;49.500;7.772;2022-10-16T05:44:09;3.13;;;1.20;;
13793;SDS011;31160;49.500;7.772;2022-10-16T05:46:36;8.57;;;1.10;;
13793;SDS011;31160;49.500;7.772;2022-10-16T05:49:03;2.80;;;0.93;;
13793;SDS011;31160;49.500;7.772;2022-10-16T05:51:29;6.77;;;1.30;;
13793;SDS011;31160;49.500;7.772;2022-10-16T05:53:56;3.63;;;1.00;;
13793;SDS011;31160;49.500;7.772;2022-10-16T05:56:23;1.93;;;0.90;;
13793;SDS011;31160;49.500;7.772;2022-10-16T05:58:50;6.20;;;1.13;;
13793;SDS011;31160;49.500;7.772;2022-10-16T06:01:17;3.00;;;1.20;;
13793;SDS011;31160;49.500;7.772;2022-10-16T06:03:45;1.70;;;1.20;;
13793;SDS011;31160;49.500;7.772;2022-10-16T06:06:13;6.30;;;2.73;;
13793;SDS011;31160;49.500;7.772;2022-10-16T06:08:42;6.43;;;3.03;;
13793;SDS011;31160;49.500;7.772;2022-10-16T06:11:10;4.07;;;2.00;;
13793;SDS011;31160;49.500;7.772;2022-10-16T06:13:39;7.83;;;1.57;;
13793;SDS011;31160;49.500;7.772;2022-10-16T06:16:09;3.27;;;1.63;;
13793;SDS011;31160;49.500;7.772;2022-10-16T06:18:36;3.87;;;1.50;;
13793;SDS011;31160;49.500;7.772;2022-10-16T06:21:07;3.17;;;1.50;;
13793;SDS011;31160;49.500;7.772;2022-10-16T06:23:35;2.70;;;1.00;;
13793;SDS011;31160;49.500;7.772;2022-10-16T06:26:09;3.30;;;1.60;;
13793;SDS011;31160;49.500;7.772;2022-10-16T06:28:37;5.23;;;1.80;;
13793;SDS011;31160;49.500;7.772;2022-10-16T06:31:04;4.03;;;1.57;;
13793;SDS011;31160;49.500;7.772;2022-10-16T06:33:34;3.83;;;1.30;;
13793;SDS011;31160;49.500;7.772;2022-10-16T06:36:05;4.47;;;1.40;;
13793;SDS011;31160;49.500;7.772;2022-10-16T06:38:34;2.40;;;1.23;;
13793;SDS011;31160;49.500;7.772;2022-10-16T06:41:02;8.73;;;1.27;;
13793;SDS011;31160;49.500;7.772;2022-10-16T06:43:29;7.00;;;1.60;;
13793;SDS011;31160;49.500;7.772;2022-10-16T06:45:58;3.00;;;1.30;;
13793;SDS011;31160;49.500;7.772;2022-10-16T06:48:26;1.47;;;1.10;;
13793;SDS011;31160;49.500;7.772;2022-10-16T06:50:57;2.93;;;1.30;;
13793;SDS011;31160;49.500;7.772;2022-10-16T06:53:27;6.37;;;2.03;;
13793;SDS011;31160;49.500;7.772;2022-10-16T06:56:10;5.07;;;1.37;;
13793;SDS011;31160;49.500;7.772;2022-10-16T06:58:45;5.00;;;1.20;;
13793;SDS011;31160;49.500;7.772;2022-10-16T07:01:13;3.87;;;1.20;;
13793;SDS011;31160;49.500;7.772;2022-10-16T07:03:41;3.60;;;1.57;;
13793;SDS011;31160;49.500;7.772;2022-10-16T07:06:10;7.73;;;1.70;;
13793;SDS011;31160;49.500;7.772;2022-10-16T07:08:39;4.83;;;1.73;;
13793;SDS011;31160;49.500;7.772;2022-10-16T07:11:08;6.20;;;1.50;;
13793;SDS011;31160;49.500;7.772;2022-10-16T07:13:38;4.60;;;1.50;;
13793;SDS011;31160;49.500;7.772;2022-10-16T07:16:13;3.67;;;1.33;;
13793;SDS011;31160;49.500;7.772;2022-10-16T07:18:44;3.57;;;1.33;;
13793;SDS011;31160;49.500;7.772;2022-10-16T07:21:13;2.87;;;1.00;;
13793;SDS011;31160;49.500;7.772;2022-10-16T07:23:40;3.90;;;2.53;;
13793;SDS011;31160;49.500;7.772;2022-10-16T07:26:07;4.27;;;1.80;;
13793;SDS011;31160;49.500;7.772;2022-10-16T07:28:35;2.87;;;1.43;;
13793;SDS011;31160;49.500;7.772;2022-10-16T07:31:03;2.57;;;0.90;;
13793;SDS011;31160;49.500;7.772;2022-10-16T07:33:37;3.77;;;1.50;;
13793;SDS011;31160;49.500;7.772;2022-10-16T07:36:05;2.03;;;1.60;;
13793;SDS011;31160;49.500;7.772;2022-10-16T07:38:32;5.33;;;2.10;;
13793;SDS011;31160;49.500;7.772;2022-10-16T07:40:59;2.70;;;1.57;;
13793;SDS011;31160;49.500;7.772;2022-10-16T07:43:28;3.97;;;1.77;;
13793;SDS011;31160;49.500;7.772;2022-10-16T07:45:55;4.43;;;2.03;;
13793;SDS011;31160;49.500;7.772;2022-10-16T07:48:29;2.60;;;1.80;;
13793;SDS011;31160;49.500;7.772;2022-10-16T07:50:58;7.60;;;3.10;;
13793;SDS011;31160;49.500;7.772;2022-10-16T07:53:25;6.77;;;3.87;;
13793;SDS011;31160;49.500;7.772;2022-10-16T07:55:56;34.90;;;4.00;;
13793;SDS011;31160;49.500;7.772;2022-10-16T07:58:27;6.00;;;3.30;;
13793;SDS011;31160;49.500;7.772;2022-10-16T08:00:55;10.13;;;3.63;;
13793;SDS011;31160;49.500;7.772;2022-10-16T08:03:23;9.67;;;3.13;;
13793;SDS011;31160;49.500;7.772;2022-10-16T08:05:50;6.90;;;3.00;;
13793;SDS011;31160;49.500;7.772;2022-10-16T08:08:17;7.30;;;3.30;;
13793;SDS011;31160;49.500;7.772;2022-10-16T08:10:44;5.13;;;3.70;;
13793;SDS011;31160;49.500;7.772;2022-10-16T08:13:11;6.80;;;3.10;;
13793;SDS011;31160;49.500;7.772;2022-10-16T08:15:41;7.70;;;4.23;;
13793;SDS011;31160;49.500;7.772;2022-10-16T08:18:09;4.77;;;3.63;;
13793;SDS011;31160;49.500;7.772;2022-10-16T08:20:36;8.50;;;3.60;;
13793;SDS011;31160;49.500;7.772;2022-10-16T08:23:03;6.47;;;3.17;;
13793;SDS011;31160;49.500;7.772;2022-10-16T08:25:30;4.13;;;3.27;;
13793;SDS011;31160;49.500;7.772;2022-10-16T08:27:57;19.33;;;14.57;;
13793;SDS011;31160;49.500;7.772;2022-10-16T08:30:23;6.60;;;3.23;;
13793;SDS011;31160;49.500;7.772;2022-10-16T08:32:50;5.67;;;3.33;;
13793;SDS011;31160;49.500;7.772;2022-10-16T08:35:17;5.17;;;2.90;;
13793;SDS011;31160;49.500;7.772;2022-10-16T08:37:44;5.33;;;3.10;;
13793;SDS011;31160;49.500;7.772;2022-10-16T08:40:21;3.40;;;2.77;;
13793;SDS011;31160;49.500;7.772;2022-10-16T08:50:46;4.00;;;2.97;;
13793;SDS011;31160;49.500;7.772;2022-10-16T08:53:57;4.20;;;3.80;;
13793;SDS011;31160;49.500;7.772;2022-10-16T08:56:15;4.67;;;3.17;;
13793;SDS011;31160;49.500;7.772;2022-10-16T08:58:43;6.17;;;3.33;;
13793;SDS011;31160;49.500;7.772;2022-10-16T09:01:14;3.13;;;2.83;;
13793;SDS011;31160;49.500;7.772;2022-10-16T09:06:49;3.23;;;2.20;;
13793;SDS011;31160;49.500;7.772;2022-10-16T09:09:31;4.10;;;2.10;;
13793;SDS011;31160;49.500;7.772;2022-10-16T09:17:32;2.37;;;2.03;;
13793;SDS011;31160;49.500;7.772;2022-10-16T09:23:18;1.30;;;1.17;;
13793;SDS011;31160;49.500;7.772;2022-10-16T09:25:49;1.70;;;1.30;;
13793;SDS011;31160;49.500;7.772;2022-10-16T09:28:17;1.93;;;1.30;;
13793;SDS011;31160;49.500;7.772;2022-10-16T09:30:45;2.20;;;1.40;;
13793;SDS011;31160;49.500;7.772;2022-10-16T09:33:12;3.10;;;1.50;;
13793;SDS011;31160;49.500;7.772;2022-10-16T09:35:42;1.97;;;1.20;;
13793;SDS011;31160;49.500;7.772;2022-10-16T09:41:17;3.43;;;1.47;;
13793;SDS011;31160;49.500;7.772;2022-10-16T09:43:48;2.83;;;1.37;;
13793;SDS011;31160;49.500;7.772;2022-10-16T09:46:35;2.80;;;1.53;;
13793;SDS011;31160;49.500;7.772;2022-10-16T09:49:05;5.10;;;1.67;;
13793;SDS011;31160;49.500;7.772;2022-10-16T09:51:45;2.40;;;1.90;;
13793;SDS011;31160;49.500;7.772;2022-10-16T09:54:19;3.23;;;1.77;;
13793;SDS011;31160;49.500;7.772;2022-10-16T09:56:47;3.57;;;1.70;;
13793;SDS011;31160;49.500;7.772;2022-10-16T09:59:20;2.77;;;2.20;;
13793;SDS011;31160;49.500;7.772;2022-10-16T10:01:50;2.50;;;1.47;;
13793;SDS011;31160;49.500;7.772;2022-10-16T10:04:19;2.53;;;1.70;;
13793;SDS011;31160;49.500;7.772;2022-10-16T10:06:47;3.90;;;1.77;;
13793;SDS011;31160;49.500;7.772;2022-10-16T10:09:16;2.97;;;1.80;;
13793;SDS011;31160;49.500;7.772;2022-10-16T10:17:08;2.20;;;1.70;;
13793;SDS011;31160;49.500;7.772;2022-10-16T10:19:51;3.07;;;1.80;;
13793;SDS011;31160;49.500;7.772;2022-10-16T10:32:59;2.57;;;1.60;;
13793;SDS011;31160;49.500;7.772;2022-10-16T10:38:51;3.53;;;1.63;;
13793;SDS011;31160;49.500;7.772;2022-10-16T10:52:28;3.30;;;2.27;;
13793;SDS011;31160;49.500;7.772;2022-10-16T10:57:53;4.00;;;2.47;;
13793;SDS011;31160;49.500;7.772;2022-10-16T11:00:57;3.57;;;1.90;;
13793;SDS011;31160;49.500;7.772;2022-10-16T11:06:33;4.03;;;2.10;;
13793;SDS011;31160;49.500;7.772;2022-10-16T11:09:18;3.07;;;1.90;;
13793;SDS011;31160;49.500;7.772;2022-10-16T11:11:54;2.13;;;1.50;;
13793;SDS011;31160;49.500;7.772;2022-10-16T11:14:28;5.47;;;2.00;;
13793;SDS011;31160;49.500;7.772;2022-10-16T11:17:02;3.07;;;1.77;;
13793;SDS011;31160;49.500;7.772;2022-10-16T11:19:42;5.17;;;2.27;;
13793;SDS011;31160;49.500;7.772;2022-10-16T11:22:22;3.50;;;2.20;;
13793;SDS011;31160;49.500;7.772;2022-10-16T11:25:13;3.30;;;1.80;;
13793;SDS011;31160;49.500;7.772;2022-10-16T11:30:42;1.77;;;1.40;;
13793;SDS011;31160;49.500;7.772;2022-10-16T11:35:48;2.67;;;1.47;;
13793;SDS011;31160;49.500;7.772;2022-10-16T11:41:27;2.60;;;1.47;;
13793;SDS011;31160;49.500;7.772;2022-10-16T11:50:06;2.50;;;1.47;;
13793;SDS011;31160;49.500;7.772;2022-10-16T11:55:22;1.63;;;1.20;;
13793;SDS011;31160;49.500;7.772;2022-10-16T11:57:54;1.87;;;1.30;;
13793;SDS011;31160;49.500;7.772;2022-10-16T12:03:27;2.20;;;1.40;;
13793;SDS011;31160;49.500;7.772;2022-10-16T12:09:20;2.13;;;1.60;;
13793;SDS011;31160;49.500;7.772;2022-10-16T12:11:50;6.20;;;1.43;;
13793;SDS011;31160;49.500;7.772;2022-10-16T12:14:19;2.20;;;1.20;;
13793;SDS011;31160;49.500;7.772;2022-10-16T12:16:56;3.70;;;1.30;;
13793;SDS011;31160;49.500;7.772;2022-10-16T12:19:28;3.23;;;1.20;;
13793;SDS011;31160;49.500;7.772;2022-10-16T12:21:57;5.00;;;1.40;;
13793;SDS011;31160;49.500;7.772;2022-10-16T12:24:29;2.07;;;1.30;;
13793;SDS011;31160;49.500;7.772;2022-10-16T12:27:04;6.20;;;1.40;;
13793;SDS011;31160;49.500;7.772;2022-10-16T12:29:45;3.60;;;1.30;;
13793;SDS011;31160;49.500;7.772;2022-10-16T12:35:17;2.60;;;1.20;;
13793;SDS011;31160;49.500;7.772;2022-10-16T12:37:49;2.37;;;1.30;;
13793;SDS011;31160;49.500;7.772;2022-10-16T12:40:27;3.80;;;1.20;;
13793;SDS011;31160;49.500;7.772;2022-10-16T12:42:56;3.50;;;1.20;;
13793;SDS011;31160;49.500;7.772;2022-10-16T12:47:53;1.27;;;1.17;;
13793;SDS011;31160;49.500;7.772;2022-10-16T12:50:34;3.83;;;1.30;;
13793;SDS011;31160;49.500;7.772;2022-10-16T12:53:04;5.00;;;1.30;;
13793;SDS011;31160;49.500;7.772;2022-10-16T12:55:52;1.67;;;1.30;;
13793;SDS011;31160;49.500;7.772;2022-10-16T12:58:43;2.07;;;1.40;;
13793;SDS011;31160;49.500;7.772;2022-10-16T13:01:31;2.27;;;1.37;;
13793;SDS011;31160;49.500;7.772;2022-10-16T13:07:10;2.23;;;1.40;;
13793;SDS011;31160;49.500;7.772;2022-10-16T13:12:30;3.93;;;1.30;;
13793;SDS011;31160;49.500;7.772;2022-10-16T13:23:23;3.63;;;1.57;;
13793;SDS011;31160;49.500;7.772;2022-10-16T13:28:31;2.40;;;1.37;;
13793;SDS011;31160;49.500;7.772;2022-10-16T13:31:01;4.20;;;1.23;;
13793;SDS011;31160;49.500;7.772;2022-10-16T13:33:32;3.10;;;1.70;;
13793;SDS011;31160;49.500;7.772;2022-10-16T13:36:04;3.13;;;1.23;;
13793;SDS011;31160;49.500;7.772;2022-10-16T13:38:32;4.93;;;1.30;;
13793;SDS011;31160;49.500;7.772;2022-10-16T13:41:01;3.17;;;1.30;;
13793;SDS011;31160;49.500;7.772;2022-10-16T13:43:39;3.40;;;2.27;;
13793;SDS011;31160;49.500;7.772;2022-10-16T13:46:21;2.40;;;1.37;;
13793;SDS011;31160;49.500;7.772;2022-10-16T13:51:38;2.27;;;1.20;;
13793;SDS011;31160;49.500;7.772;2022-10-16T13:54:07;1.47;;;1.10;;
13793;SDS011;31160;49.500;7.772;2022-10-16T13:56:38;3.60;;;1.30;;
13793;SDS011;31160;49.500;7.772;2022-10-16T13:59:20;3.23;;;1.30;;
13793;SDS011;31160;49.500;7.772;2022-10-16T14:01:49;2.23;;;1.33;;
13793;SDS011;31160;49.500;7.772;2022-10-16T14:04:20;1.57;;;1.30;;
13793;SDS011;31160;49.500;7.772;2022-10-16T14:06:48;3.00;;;1.40;;
13793;SDS011;31160;49.500;7.772;2022-10-16T14:09:22;2.37;;;1.40;;
13793;SDS011;31160;49.500;7.772;2022-10-16T14:12:02;1.97;;;1.60;;
13793;SDS011;31160;49.500;7.772;2022-10-16T14:14:44;3.37;;;1.60;;
13793;SDS011;31160;49.500;7.772;2022-10-16T14:17:27;3.67;;;1.70;;
13793;SDS011;31160;49.500;7.772;2022-10-16T14:19:57;5.67;;;1.50;;
13793;SDS011;31160;49.500;7.772;2022-10-16T14:22:32;3.27;;;1.83;;
13793;SDS011;31160;49.500;7.772;2022-10-16T14:25:48;3.93;;;2.33;;
13793;SDS011;31160;49.500;7.772;2022-10-16T14:28:04;6.43;;;2.27;;
13793;SDS011;31160;49.500;7.772;2022-10-16T14:30:35;6.13;;;2.50;;
13793;SDS011;31160;49.500;7.772;2022-10-16T14:33:18;5.07;;;2.53;;
13793;SDS011;31160;49.500;7.772;2022-10-16T14:35:57;4.33;;;1.80;;
13793;SDS011;31160;49.500;7.772;2022-10-16T14:38:40;3.13;;;1.60;;
13793;SDS011;31160;49.500;7.772;2022-10-16T14:41:08;3.87;;;1.57;;
13793;SDS011;31160;49.500;7.772;2022-10-16T14:43:42;3.70;;;1.37;;
13793;SDS011;31160;49.500;7.772;2022-10-16T14:46:18;2.03;;;1.50;;
13793;SDS011;31160;49.500;7.772;2022-10-16T14:48:53;6.80;;;1.50;;
13793;SDS011;31160;49.500;7.772;2022-10-16T14:51:27;2.60;;;1.30;;
13793;SDS011;31160;49.500;7.772;2022-10-16T14:53:53;2.20;;;1.47;;
13793;SDS011;31160;49.500;7.772;2022-10-16T14:56:28;2.23;;;1.67;;
13793;SDS011;31160;49.500;7.772;2022-10-16T14:58:58;3.70;;;2.20;;
13793;SDS011;31160;49.500;7.772;2022-10-16T15:01:26;3.90;;;1.30;;
13793;SDS011;31160;49.500;7.772;2022-10-16T15:03:52;2.27;;;1.20;;
13793;SDS011;31160;49.500;7.772;2022-10-16T15:06:21;2.43;;;1.27;;
13793;SDS011;31160;49.500;7.772;2022-10-16T15:08:48;4.20;;;1.40;;
13793;SDS011;31160;49.500;7.772;2022-10-16T15:11:15;2.83;;;1.47;;
13793;SDS011;31160;49.500;7.772;2022-10-16T15:13:44;3.60;;;1.43;;
13793;SDS011;31160;49.500;7.772;2022-10-16T15:16:13;4.23;;;1.70;;
13793;SDS011;31160;49.500;7.772;2022-10-16T15:18:41;2.13;;;1.30;;
13793;SDS011;31160;49.500;7.772;2022-10-16T15:21:13;4.33;;;1.30;;
13793;SDS011;31160;49.500;7.772;2022-10-16T15:23:53;3.60;;;1.70;;
13793;SDS011;31160;49.500;7.772;2022-10-16T15:26:20;5.23;;;1.30;;
13793;SDS011;31160;49.500;7.772;2022-10-16T15:28:47;3.83;;;1.60;;
13793;SDS011;31160;49.500;7.772;2022-10-16T15:31:14;4.30;;;2.20;;
13793;SDS011;31160;49.500;7.772;2022-10-16T15:33:40;4.43;;;2.80;;
13793;SDS011;31160;49.500;7.772;2022-10-16T15:36:07;5.20;;;2.47;;
13793;SDS011;31160;49.500;7.772;2022-10-16T15:38:34;6.37;;;2.43;;
13793;SDS011;31160;49.500;7.772;2022-10-16T15:41:01;6.13;;;2.43;;
13793;SDS011;31160;49.500;7.772;2022-10-16T15:43:28;5.47;;;2.63;;
13793;SDS011;31160;49.500;7.772;2022-10-16T15:45:58;8.93;;;2.40;;
13793;SDS011;31160;49.500;7.772;2022-10-16T15:48:27;4.80;;;2.00;;
13793;SDS011;31160;49.500;7.772;2022-10-16T15:50:55;5.70;;;2.00;;
13793;SDS011;31160;49.500;7.772;2022-10-16T15:53:21;5.30;;;1.90;;
13793;SDS011;31160;49.500;7.772;2022-10-16T15:55:48;4.60;;;2.07;;
13793;SDS011;31160;49.500;7.772;2022-10-16T15:58:15;5.53;;;2.00;;
13793;SDS011;31160;49.500;7.772;2022-10-16T16:00:43;4.37;;;2.17;;
13793;SDS011;31160;49.500;7.772;2022-10-16T16:03:10;8.50;;;2.50;;
13793;SDS011;31160;49.500;7.772;2022-10-16T16:05:37;8.90;;;2.07;;
13793;SDS011;31160;49.500;7.772;2022-10-16T16:08:11;6.43;;;2.27;;
13793;SDS011;31160;49.500;7.772;2022-10-16T16:10:38;12.50;;;2.07;;
13793;SDS011;31160;49.500;7.772;2022-10-16T16:13:04;8.17;;;3.97;;
13793;SDS011;31160;49.500;7.772;2022-10-16T16:15:31;4.53;;;2.60;;
13793;SDS011;31160;49.500;7.772;2022-10-16T16:17:58;9.40;;;3.13;;
13793;SDS011;31160;49.500;7.772;2022-10-16T16:20:25;7.97;;;2.83;;
13793;SDS011;31160;49.500;7.772;2022-10-16T16:22:51;8.90;;;2.83;;
13793;SDS011;31160;49.500;7.772;2022-10-16T16:25:18;7.57;;;2.80;;
13793;SDS011;31160;49.500;7.772;2022-10-16T16:27:45;7.03;;;2.63;;
13793;SDS011;31160;49.500;7.772;2022-10-16T16:30:11;2.67;;;2.20;;
13793;SDS011;31160;49.500;7.772;2022-10-16T16:32:45;6.50;;;2.67;;
13793;SDS011;31160;49.500;7.772;2022-10-16T16:35:12;7.20;;;2.77;;
13793;SDS011;31160;49.500;7.772;2022-10-16T16:37:38;11.20;;;2.90;;
13793;SDS011;31160;49.500;7.772;2022-10-16T16:40:05;7.90;;;3.70;;
13793;SDS011;31160;49.500;7.772;2022-10-16T16:42:32;8.83;;;3.10;;
13793;SDS011;31160;49.500;7.772;2022-10-16T16:44:58;9.17;;;3.17;;
13793;SDS011;31160;49.500;7.772;2022-10-16T16:47:25;10.30;;;3.97;;
13793;SDS011;31160;49.500;7.772;2022-10-16T16:49:52;11.23;;;6.00;;
13793;SDS011;31160;49.500;7.772;2022-10-16T16:52:19;9.33;;;5.53;;
13793;SDS011;31160;49.500;7.772;2022-10-16T16:54:47;5.27;;;3.57;;
13793;SDS011;31160;49.500;7.772;2022-10-16T16:57:18;20.63;;;8.77;;
13793;SDS011;31160;49.500;7.772;2022-10-16T16:59:45;23.77;;;7.43;;
13793;SDS011;31160;49.500;7.772;2022-10-16T17:02:12;15.30;;;9.67;;
13793;SDS011;31160;49.500;7.772;2022-10-16T17:04:40;12.80;;;7.17;;